Edna T. Gattle — WDD2528 — position and weather

sailwx.info

Track history (hours):
 
Tides and Currents Weather Stations Pressure Air Temp Water Temp Dewpoint Dewpoint Depression Visibility Wind Speed Wind Dir Waves Ship Positions

Edna T. Gattle

More information available from US FCC via Universal Licensing System and Coast Guard Vessel Documentation Center.

Last reported at 2014-Jul-24 21:33 UTC. Time now 2014-Jul-25 16:04 UTC.
Position N 29°51' W 091°25'.

Length 33 m; draft 2.6 m.

Type: Towing. MMSI: 367116420.

Date/timePositionNaut miles runAvg speedWind from/ knotsBaromVisibWave heightAir tempDewpointWater temp
2014-Jul-24 21:33N 29°51' W 091°25'8 7.9
2014-Jul-24 20:33N 29°46' W 091°19'6 6.4
2014-Jul-24 19:33N 29°42' W 091°13'8 7.5
2014-Jul-24 18:33N 29°38' W 091°21'7 7.4
2014-Jul-24 17:33N 29°41' W 091°29'3 0.1
2014-Jul-23 13:10N 29°40' W 091°26'3 5.6
2014-Jul-23 12:33N 29°39' W 091°22'6 6.0
2014-Jul-23 11:33N 29°39' W 091°15'5 4.5
2014-Jul-23 10:33N 29°44' W 091°14'4 4.1
2014-Jul-23 09:33N 29°46' W 091°18'8 7.8
2014-Jul-23 08:33N 29°51' W 091°24'8 8.3
2014-Jul-23 07:32N 29°59' W 091°28'8 8.2
2014-Jul-23 06:32N 30°07' W 091°29'  
Track history (hours):
 
Tides and Currents Weather Stations Pressure Air Temp Water Temp Dewpoint Dewpoint Depression Visibility Wind Speed Wind Dir Waves Ship Positions

Edna T. Gattle

More information available from US FCC via Universal Licensing System and Coast Guard Vessel Documentation Center.

Last reported at 2014-Jul-24 21:33 UTC. Time now 2014-Jul-25 16:04 UTC.
Position N 29°51' W 091°25'.

Length 33 m; draft 2.6 m.

Type: Towing. MMSI: 367116420.

Date/timePositionNaut miles runAvg speedWind from/ knotsBaromVisibWave heightAir tempDewpointWater temp
2014-Jul-24 21:33N 29°51' W 091°25'8 7.9
2014-Jul-24 20:33N 29°46' W 091°19'6 6.4
2014-Jul-24 19:33N 29°42' W 091°13'8 7.5
2014-Jul-24 18:33N 29°38' W 091°21'7 7.4
2014-Jul-24 17:33N 29°41' W 091°29'3 0.1
2014-Jul-23 13:10N 29°40' W 091°26'3 5.6
2014-Jul-23 12:33N 29°39' W 091°22'6 6.0
2014-Jul-23 11:33N 29°39' W 091°15'5 4.5
2014-Jul-23 10:33N 29°44' W 091°14'4 4.1
2014-Jul-23 09:33N 29°46' W 091°18'8 7.8
2014-Jul-23 08:33N 29°51' W 091°24'8 8.3
2014-Jul-23 07:32N 29°59' W 091°28'8 8.2
2014-Jul-23 06:32N 30°07' W 091°29'  

Dump ship's entire track history